createdAt,value
2019-04-30T00:01:58.998Z,5.97
2019-04-30T00:04:29.809Z,7.20
2019-04-30T00:06:59.025Z,6.47
2019-04-30T00:09:27.965Z,6.67
2019-04-30T00:12:00.943Z,6.97
2019-04-30T00:14:32.009Z,6.78
2019-04-30T00:19:25.938Z,6.47
2019-04-30T00:22:00.068Z,8.18
2019-04-30T00:24:25.998Z,6.87
2019-04-30T00:26:55.169Z,7.17
2019-04-30T00:29:28.035Z,6.63
2019-04-30T00:31:59.349Z,6.65
2019-04-30T00:34:24.962Z,7.03
2019-04-30T00:36:53.648Z,6.20
2019-04-30T00:39:22.436Z,6.77
2019-04-30T00:41:50.913Z,5.77
2019-04-30T00:44:19.848Z,6.40
2019-04-30T00:46:49.585Z,7.00
2019-04-30T00:49:22.903Z,7.37
2019-04-30T00:51:49.769Z,6.90
2019-04-30T00:54:22.370Z,6.35
2019-04-30T00:56:48.787Z,6.58
2019-04-30T00:59:17.351Z,6.73
2019-04-30T01:01:56.390Z,6.57
2019-04-30T01:04:29.553Z,6.10
2019-04-30T01:07:00.265Z,6.67
2019-04-30T01:09:28.226Z,6.20
2019-04-30T01:11:56.751Z,6.50
2019-04-30T01:14:28.323Z,6.07
2019-04-30T01:16:55.474Z,6.95
2019-04-30T01:19:30.134Z,6.53
2019-04-30T01:24:23.416Z,6.23
2019-04-30T01:26:52.638Z,6.60
2019-04-30T01:29:23.294Z,7.53
2019-04-30T01:31:51.781Z,7.13
2019-04-30T01:34:20.282Z,5.80
2019-04-30T01:36:52.221Z,6.43
2019-04-30T01:39:19.546Z,6.85
2019-04-30T01:41:48.807Z,6.77
2019-04-30T01:44:19.386Z,6.57
2019-04-30T01:46:51.322Z,6.55
2019-04-30T01:49:19.993Z,6.45
2019-04-30T01:51:48.676Z,7.00
2019-04-30T01:54:21.150Z,6.67
2019-04-30T01:57:05.940Z,7.12
2019-04-30T01:59:53.051Z,7.53
2019-04-30T02:02:23.182Z,6.80
2019-04-30T02:04:51.625Z,7.05
2019-04-30T02:07:20.122Z,7.07
2019-04-30T02:09:48.935Z,6.80
2019-04-30T02:12:21.687Z,6.60
2019-04-30T02:14:49.447Z,6.72
2019-04-30T02:17:19.261Z,6.85
2019-04-30T02:19:55.984Z,7.25
2019-04-30T02:24:48.674Z,6.53
2019-04-30T02:27:19.110Z,6.47
2019-04-30T02:29:49.403Z,6.65
2019-04-30T02:32:20.554Z,6.30
2019-04-30T02:34:49.856Z,6.55
2019-04-30T02:37:21.031Z,6.13
2019-04-30T02:39:50.281Z,6.90
2019-04-30T02:42:20.432Z,6.23
2019-04-30T02:44:50.548Z,6.33
2019-04-30T02:47:21.704Z,6.25
2019-04-30T02:49:53.338Z,7.27
2019-04-30T02:52:24.694Z,6.90
2019-04-30T02:54:56.388Z,6.10
2019-04-30T02:57:24.826Z,6.70
2019-04-30T03:00:09.708Z,6.07
2019-04-30T03:02:39.834Z,6.90
2019-04-30T03:05:12.733Z,6.40
2019-04-30T03:10:10.150Z,6.83
2019-04-30T03:15:09.964Z,6.40
2019-04-30T03:17:52.558Z,6.00
2019-04-30T03:20:35.115Z,6.60
2019-04-30T03:22:55.550Z,6.73
2019-04-30T03:25:24.103Z,7.07
2019-04-30T03:27:52.546Z,6.57
2019-04-30T03:30:22.155Z,6.40
2019-04-30T03:32:56.613Z,6.87
2019-04-30T03:35:22.643Z,6.37
2019-04-30T03:37:51.235Z,6.53
2019-04-30T03:40:20.263Z,6.57
2019-04-30T03:42:49.469Z,7.50
2019-04-30T03:45:20.432Z,7.30
2019-04-30T03:47:50.518Z,6.42
2019-04-30T03:50:19.865Z,6.87
2019-04-30T03:52:50.362Z,6.90
2019-04-30T03:57:51.636Z,6.17
2019-04-30T04:00:20.495Z,7.40
2019-04-30T04:02:50.131Z,6.40
2019-04-30T04:05:32.759Z,7.05
2019-04-30T04:08:02.924Z,6.63
2019-04-30T04:10:50.243Z,6.70
2019-04-30T04:13:19.762Z,6.30
2019-04-30T04:15:49.988Z,6.85
2019-04-30T04:18:20.251Z,6.80
2019-04-30T04:20:50.461Z,5.75
2019-04-30T04:23:19.334Z,6.35
2019-04-30T04:25:49.912Z,7.10
2019-04-30T04:28:20.251Z,6.55
2019-04-30T04:30:50.549Z,7.15
2019-04-30T04:33:19.951Z,6.90
2019-04-30T04:35:49.856Z,6.58
2019-04-30T04:38:20.402Z,6.42
2019-04-30T04:40:50.233Z,6.60
2019-04-30T04:43:20.234Z,6.83
2019-04-30T04:45:49.721Z,5.42
2019-04-30T04:48:19.851Z,5.90
2019-04-30T04:50:50.177Z,7.42
2019-04-30T04:53:19.628Z,6.55
2019-04-30T04:55:49.908Z,6.97
2019-04-30T04:58:21.547Z,6.15
2019-04-30T05:00:49.435Z,6.15
2019-04-30T05:03:22.554Z,6.62
2019-04-30T05:05:51.241Z,5.83
2019-04-30T05:08:19.755Z,6.17
2019-04-30T05:10:49.511Z,6.40
2019-04-30T05:13:19.193Z,6.08
2019-04-30T05:15:51.284Z,5.60
2019-04-30T05:18:19.136Z,5.87
2019-04-30T05:20:49.091Z,6.65
2019-04-30T05:23:19.559Z,5.60
2019-04-30T05:25:49.088Z,5.65
2019-04-30T05:28:18.906Z,6.58
2019-04-30T05:30:49.261Z,6.17
2019-04-30T05:33:18.649Z,6.05
2019-04-30T05:35:47.263Z,5.50
2019-04-30T05:38:15.982Z,6.13
2019-04-30T05:40:44.431Z,6.37
2019-04-30T05:43:12.874Z,5.67
2019-04-30T05:45:41.397Z,5.87
2019-04-30T05:48:09.849Z,5.27
2019-04-30T05:50:39.138Z,5.77
2019-04-30T05:53:09.024Z,6.03
2019-04-30T05:55:39.384Z,5.85
2019-04-30T05:58:09.377Z,5.62
2019-04-30T06:00:40.057Z,5.72
2019-04-30T06:03:09.428Z,5.20
2019-04-30T06:05:39.419Z,5.35
2019-04-30T06:08:09.293Z,5.65
2019-04-30T06:10:39.670Z,6.22
2019-04-30T06:15:51.995Z,5.03
2019-04-30T06:18:20.551Z,5.00
2019-04-30T06:20:48.999Z,5.47
2019-04-30T06:23:19.389Z,5.13
2019-04-30T06:25:57.468Z,5.08
2019-04-30T06:28:20.557Z,5.35
2019-04-30T06:30:49.370Z,5.40
2019-04-30T06:33:19.305Z,5.22
2019-04-30T06:35:49.322Z,5.53
2019-04-30T06:38:18.582Z,4.50
2019-04-30T06:40:48.853Z,4.33
2019-04-30T06:45:50.919Z,4.15
2019-04-30T06:50:49.221Z,4.25
2019-04-30T06:53:19.233Z,4.10
2019-04-30T06:55:49.217Z,3.55
2019-04-30T06:58:20.403Z,4.30
2019-04-30T07:00:49.634Z,3.85
2019-04-30T07:03:19.190Z,3.95
2019-04-30T07:05:48.812Z,4.40
2019-04-30T07:08:41.996Z,4.17
2019-04-30T07:11:21.121Z,4.25
2019-04-30T07:13:52.356Z,4.55
2019-04-30T07:16:20.927Z,4.17
2019-04-30T07:18:49.425Z,4.00
2019-04-30T07:21:19.836Z,4.22
2019-04-30T07:23:48.559Z,3.33
2019-04-30T07:26:22.667Z,4.03
2019-04-30T07:28:52.783Z,3.85
2019-04-30T07:31:19.254Z,4.87
2019-04-30T07:36:19.563Z,4.00
2019-04-30T07:38:54.558Z,3.98
2019-04-30T07:41:18.989Z,3.67
2019-04-30T07:43:49.373Z,3.35
2019-04-30T07:46:19.799Z,3.60
2019-04-30T07:48:50.101Z,3.62
2019-04-30T07:51:21.077Z,3.47
2019-04-30T07:53:49.645Z,3.15
2019-04-30T07:56:25.552Z,3.52
2019-04-30T07:58:50.522Z,3.42
2019-04-30T08:01:19.618Z,3.40
2019-04-30T08:04:08.668Z,3.03
2019-04-30T08:06:36.683Z,3.42
2019-04-30T08:09:10.308Z,3.22
2019-04-30T08:09:34.157Z,3.58
2019-04-30T08:11:41.883Z,3.15
2019-04-30T08:16:38.662Z,3.22
2019-04-30T08:19:09.011Z,3.72
2019-04-30T08:21:38.746Z,3.30
2019-04-30T08:24:09.306Z,3.60
2019-04-30T08:26:39.632Z,3.47
2019-04-30T08:29:09.589Z,3.50
2019-04-30T08:31:40.689Z,3.50
2019-04-30T08:34:10.625Z,3.50
2019-04-30T08:36:38.712Z,3.00
2019-04-30T08:39:09.589Z,3.95
2019-04-30T08:41:39.225Z,3.47
2019-04-30T08:44:09.424Z,4.55
2019-04-30T08:46:38.781Z,4.17
2019-04-30T08:49:09.367Z,3.22
2019-04-30T08:51:38.799Z,3.95
2019-04-30T08:54:09.538Z,3.67
2019-04-30T08:56:38.824Z,4.03
2019-04-30T08:59:08.756Z,4.20
2019-04-30T09:01:38.693Z,4.33
2019-04-30T09:04:07.677Z,4.28
2019-04-30T09:06:38.672Z,4.22
2019-04-30T09:11:51.714Z,3.55
2019-04-30T09:14:08.722Z,3.37
2019-04-30T09:16:39.204Z,3.72
2019-04-30T09:19:07.423Z,3.60
2019-04-30T09:21:35.879Z,3.50
2019-04-30T09:24:04.330Z,3.12
2019-04-30T09:26:32.823Z,3.25
2019-04-30T09:29:01.324Z,3.45
2019-04-30T09:31:29.855Z,3.47
2019-04-30T09:34:00.779Z,3.52
2019-04-30T09:36:29.212Z,3.92
2019-04-30T09:38:58.802Z,3.75
2019-04-30T09:41:28.792Z,3.40
2019-04-30T09:43:59.514Z,3.58
2019-04-30T09:46:29.812Z,4.00
2019-04-30T09:48:59.679Z,3.80
2019-04-30T09:51:30.335Z,3.83
2019-04-30T09:54:00.561Z,3.87
2019-04-30T09:56:29.419Z,3.45
2019-04-30T09:58:59.295Z,2.98
2019-04-30T10:01:27.915Z,3.20
2019-04-30T10:03:56.757Z,3.85
2019-04-30T10:06:37.011Z,3.25
2019-04-30T10:08:55.841Z,3.20
2019-04-30T10:11:37.989Z,3.70
2019-04-30T10:14:06.516Z,3.80
2019-04-30T10:16:36.651Z,4.12
2019-04-30T10:19:05.193Z,3.70
2019-04-30T10:21:33.719Z,4.03
2019-04-30T10:24:12.556Z,3.70
2019-04-30T10:26:32.618Z,3.75
2019-04-30T10:29:02.103Z,3.80
2019-04-30T10:31:30.614Z,3.75
2019-04-30T10:33:59.079Z,4.03
2019-04-30T10:36:29.378Z,3.92
2019-04-30T10:38:59.498Z,3.35
2019-04-30T10:41:28.774Z,3.85
2019-04-30T10:43:59.083Z,3.95
2019-04-30T10:46:27.760Z,4.30
2019-04-30T10:48:56.211Z,4.00
2019-04-30T10:51:25.051Z,3.83
2019-04-30T10:53:53.493Z,4.10
2019-04-30T10:56:22.125Z,4.28
2019-04-30T10:58:50.619Z,3.80
2019-04-30T11:01:19.378Z,4.47
2019-04-30T11:03:47.950Z,3.80
2019-04-30T11:06:16.471Z,3.83
2019-04-30T11:08:44.918Z,4.25
2019-04-30T11:11:13.434Z,4.08
2019-04-30T11:13:41.897Z,4.55
2019-04-30T11:16:14.771Z,4.35
2019-04-30T11:21:09.820Z,4.33
2019-04-30T11:23:39.557Z,3.83
2019-04-30T11:26:08.905Z,3.95
2019-04-30T11:28:37.878Z,3.95
2019-04-30T11:31:27.067Z,4.03
2019-04-30T11:34:00.151Z,4.22
2019-04-30T11:36:29.212Z,4.37
2019-04-30T11:38:58.631Z,4.28
2019-04-30T11:41:31.034Z,4.40
2019-04-30T11:43:59.359Z,4.35
2019-04-30T11:46:47.120Z,3.58
2019-04-30T11:49:15.566Z,4.20
2019-04-30T11:51:44.046Z,4.25
2019-04-30T11:54:12.585Z,3.67
2019-04-30T11:56:41.034Z,4.20
2019-04-30T11:59:09.523Z,4.50
2019-04-30T12:01:38.144Z,3.50
2019-04-30T12:04:06.658Z,4.55
2019-04-30T12:06:35.114Z,4.12
2019-04-30T12:09:09.498Z,5.00
2019-04-30T12:11:39.684Z,3.67
2019-04-30T12:14:08.304Z,3.42
2019-04-30T12:16:36.760Z,4.40
2019-04-30T12:19:05.582Z,4.00
2019-04-30T12:21:34.030Z,4.00
2019-04-30T12:24:02.535Z,4.00
2019-04-30T12:26:31.118Z,3.85
2019-04-30T12:28:59.585Z,3.95
2019-04-30T12:31:29.701Z,4.40
2019-04-30T12:36:26.066Z,3.95
2019-04-30T12:38:54.632Z,3.90
2019-04-30T12:41:23.155Z,3.90
2019-04-30T12:43:51.659Z,4.00
2019-04-30T12:46:21.302Z,3.95
2019-04-30T12:48:51.599Z,3.50
2019-04-30T12:51:21.814Z,3.72
2019-04-30T12:53:51.923Z,3.75
2019-04-30T12:56:26.972Z,3.50
2019-04-30T12:58:52.332Z,3.87
2019-04-30T13:01:20.788Z,3.60
2019-04-30T13:03:58.058Z,3.50
2019-04-30T13:06:20.245Z,3.00
2019-04-30T13:08:51.778Z,3.90
2019-04-30T13:13:50.593Z,3.33
2019-04-30T13:18:49.383Z,3.15
2019-04-30T13:21:18.489Z,2.70
2019-04-30T13:23:47.068Z,3.12
2019-04-30T13:26:15.518Z,3.35
2019-04-30T13:29:03.794Z,3.20
2019-04-30T13:31:32.260Z,3.60
2019-04-30T13:34:05.201Z,2.90
2019-04-30T13:36:33.727Z,3.00
2019-04-30T13:39:19.532Z,3.02
2019-04-30T13:41:51.058Z,2.83
2019-04-30T13:44:21.520Z,2.85
2019-04-30T13:49:17.910Z,3.60
2019-04-30T13:51:46.465Z,17.17
2019-04-30T13:54:14.955Z,3.45
2019-04-30T13:56:43.418Z,2.60
2019-04-30T13:59:11.967Z,2.75
2019-04-30T14:01:40.427Z,3.10
2019-04-30T14:04:19.579Z,3.00
2019-04-30T14:06:49.680Z,2.67
2019-04-30T14:09:22.493Z,2.67
2019-04-30T14:11:50.959Z,2.65
2019-04-30T14:14:20.009Z,2.70
2019-04-30T14:16:48.730Z,3.00
2019-04-30T14:19:17.192Z,2.52
2019-04-30T14:21:45.718Z,2.70
2019-04-30T14:24:14.218Z,2.72
2019-04-30T14:26:42.752Z,2.87
2019-04-30T14:29:11.504Z,2.75
2019-04-30T14:31:39.955Z,3.27
2019-04-30T14:34:10.088Z,2.92
2019-04-30T14:39:14.530Z,3.00
2019-04-30T14:41:40.345Z,2.98
2019-04-30T14:44:26.166Z,3.05
2019-04-30T14:46:57.026Z,3.15
2019-04-30T14:49:33.956Z,3.08
2019-04-30T14:52:03.190Z,3.12
2019-04-30T14:54:36.039Z,3.17
2019-04-30T14:57:09.434Z,3.20
2019-04-30T14:59:56.033Z,2.70
2019-04-30T15:02:26.178Z,2.77
2019-04-30T15:04:54.640Z,2.75
2019-04-30T15:07:23.189Z,3.42
2019-04-30T15:09:51.651Z,3.50
2019-04-30T15:12:20.547Z,3.50
2019-04-30T15:14:49.357Z,2.98
2019-04-30T15:17:17.985Z,3.08
2019-04-30T15:19:48.800Z,3.10
2019-04-30T15:22:16.634Z,3.42
2019-04-30T15:24:45.284Z,3.40
2019-04-30T15:27:13.816Z,3.25
2019-04-30T15:29:42.276Z,2.83
2019-04-30T15:32:10.783Z,2.95
2019-04-30T15:34:42.239Z,3.50
2019-04-30T15:37:19.221Z,2.90
2019-04-30T15:39:40.518Z,2.90
2019-04-30T15:42:09.878Z,3.02
2019-04-30T15:44:45.486Z,3.10
2019-04-30T15:49:38.044Z,2.77
2019-04-30T15:52:08.974Z,3.20
2019-04-30T15:54:37.036Z,2.85
2019-04-30T15:57:05.899Z,3.05
2019-04-30T15:59:36.022Z,2.98
2019-04-30T16:02:15.058Z,2.83
2019-04-30T16:04:45.254Z,3.20
2019-04-30T16:07:13.704Z,3.33
2019-04-30T16:09:43.831Z,3.08
2019-04-30T16:12:20.090Z,2.70
2019-04-30T16:14:47.038Z,2.58
2019-04-30T16:17:20.418Z,2.67
2019-04-30T16:19:47.452Z,2.60
2019-04-30T16:22:16.014Z,2.62
2019-04-30T16:24:44.469Z,2.52
2019-04-30T16:27:12.957Z,2.30
2019-04-30T16:29:41.443Z,3.25
2019-04-30T16:32:09.892Z,2.30
2019-04-30T16:34:38.860Z,2.50
2019-04-30T16:37:07.521Z,2.60
2019-04-30T16:39:35.972Z,2.42
2019-04-30T16:42:04.637Z,2.10
2019-04-30T16:44:33.100Z,2.60
2019-04-30T16:47:13.083Z,2.37
2019-04-30T16:49:31.836Z,3.00
2019-04-30T16:52:01.548Z,2.50
2019-04-30T16:54:30.263Z,2.70
2019-04-30T16:57:04.148Z,2.50
2019-04-30T16:59:30.707Z,2.80
2019-04-30T17:04:45.366Z,2.07
2019-04-30T17:07:15.523Z,2.50
2019-04-30T17:09:51.589Z,2.52
2019-04-30T17:12:24.535Z,3.35
2019-04-30T17:15:11.246Z,2.85
2019-04-30T17:17:40.575Z,2.37
2019-04-30T17:20:09.187Z,2.13
2019-04-30T17:22:39.369Z,2.55
2019-04-30T17:25:08.576Z,2.67
2019-04-30T17:27:39.146Z,2.45
2019-04-30T17:30:11.074Z,3.08
2019-04-30T17:32:39.647Z,2.70
2019-04-30T17:35:09.045Z,3.00
2019-04-30T17:37:37.677Z,3.00
2019-04-30T17:40:09.248Z,3.27
2019-04-30T17:42:37.352Z,3.27
2019-04-30T17:45:10.084Z,2.95
2019-04-30T17:47:38.600Z,3.00
2019-04-30T17:50:09.022Z,2.80
2019-04-30T17:52:37.614Z,2.98
2019-04-30T17:55:09.638Z,2.77
2019-04-30T17:57:40.265Z,2.98
2019-04-30T18:00:18.709Z,3.00
2019-04-30T18:02:42.042Z,3.10
2019-04-30T18:05:11.421Z,2.70
2019-04-30T18:07:40.242Z,3.35
2019-04-30T18:10:12.202Z,3.05
2019-04-30T18:12:40.650Z,3.22
2019-04-30T18:15:13.820Z,3.75
2019-04-30T18:17:43.961Z,5.00
2019-04-30T18:20:15.316Z,4.58
2019-04-30T18:22:45.583Z,4.28
2019-04-30T18:25:18.781Z,5.05
2019-04-30T18:27:54.689Z,4.72
2019-04-30T18:30:30.760Z,4.85
2019-04-30T18:32:59.206Z,4.62
2019-04-30T18:35:28.638Z,5.17
2019-04-30T18:37:58.599Z,5.05
2019-04-30T18:40:27.273Z,4.90
2019-04-30T18:42:55.805Z,4.95
2019-04-30T18:45:24.321Z,5.15
2019-04-30T18:47:52.782Z,4.22
2019-04-30T18:50:21.304Z,4.42
2019-04-30T18:52:51.361Z,4.50
2019-04-30T18:55:19.858Z,4.03
2019-04-30T18:57:56.282Z,3.77
2019-04-30T19:00:20.904Z,4.35
2019-04-30T19:02:49.361Z,4.40
2019-04-30T19:05:19.445Z,4.10
2019-04-30T19:07:55.336Z,4.53
2019-04-30T19:10:37.380Z,4.72
2019-04-30T19:13:10.428Z,4.80
2019-04-30T19:16:14.250Z,4.70
2019-04-30T19:18:23.891Z,5.03
2019-04-30T19:20:53.989Z,4.92
2019-04-30T19:23:22.468Z,4.62
2019-04-30T19:25:51.006Z,4.80
2019-04-30T19:28:19.562Z,5.03
2019-04-30T19:30:57.404Z,4.83
2019-04-30T19:33:18.241Z,4.85
2019-04-30T19:35:50.304Z,5.25
2019-04-30T19:38:16.930Z,5.90
2019-04-30T19:40:45.387Z,5.80
2019-04-30T19:43:13.838Z,5.33
2019-04-30T19:45:44.698Z,5.42
2019-04-30T19:50:40.422Z,7.75
2019-04-30T19:53:09.042Z,9.58
2019-04-30T19:55:39.249Z,10.40
2019-04-30T20:00:35.634Z,10.88
2019-04-30T20:03:04.200Z,12.63
2019-04-30T20:05:32.722Z,13.00
2019-04-30T20:08:01.256Z,13.43
2019-04-30T20:10:29.735Z,13.98
2019-04-30T20:12:58.776Z,13.62
2019-04-30T20:15:29.647Z,14.47
2019-04-30T20:17:58.345Z,13.98
2019-04-30T20:20:28.783Z,15.28
2019-04-30T20:22:57.446Z,14.50
2019-04-30T20:25:25.903Z,13.93
2019-04-30T20:27:54.350Z,13.15
2019-04-30T20:30:22.843Z,13.40
2019-04-30T20:32:51.468Z,13.93
2019-04-30T20:35:20.096Z,13.98
2019-04-30T20:38:06.711Z,13.85
2019-04-30T20:40:43.304Z,14.63
2019-04-30T20:43:08.462Z,14.23
2019-04-30T20:45:36.715Z,14.63
2019-04-30T20:48:05.308Z,17.30
2019-04-30T20:50:34.943Z,25.97
2019-04-30T20:53:03.390Z,25.37
2019-04-30T20:55:31.939Z,26.65
2019-04-30T20:58:00.387Z,30.25
2019-04-30T21:00:28.838Z,40.50
2019-04-30T21:02:57.380Z,48.38
2019-04-30T21:05:27.649Z,55.70
2019-04-30T21:07:56.450Z,54.05
2019-04-30T21:10:24.989Z,58.00
2019-04-30T21:12:53.480Z,52.05
2019-04-30T21:15:21.935Z,55.08
2019-04-30T21:17:50.586Z,53.35
2019-04-30T21:20:19.499Z,41.88
2019-04-30T21:22:49.465Z,36.42
2019-04-30T21:25:18.829Z,41.02
2019-04-30T21:27:49.874Z,39.53
2019-04-30T21:30:18.035Z,43.85
2019-04-30T21:32:51.211Z,43.20
2019-04-30T21:35:24.225Z,40.78
2019-04-30T21:37:54.622Z,44.25
2019-04-30T21:40:23.162Z,53.15
2019-04-30T21:42:51.687Z,56.33
2019-04-30T21:45:20.174Z,52.55
2019-04-30T21:47:56.146Z,54.13
2019-04-30T21:50:19.674Z,57.83
2019-04-30T21:52:49.567Z,55.40
2019-04-30T21:55:19.784Z,53.78
2019-04-30T21:57:49.635Z,53.85
2019-04-30T22:00:36.879Z,54.03
2019-04-30T22:03:07.108Z,58.30
2019-04-30T22:05:35.558Z,53.85
2019-04-30T22:08:04.298Z,56.28
2019-04-30T22:10:32.764Z,53.68
2019-04-30T22:13:01.227Z,53.83
2019-04-30T22:15:29.813Z,55.17
2019-04-30T22:17:58.266Z,50.75
2019-04-30T22:20:29.056Z,54.08
2019-04-30T22:22:56.962Z,56.48
2019-04-30T22:25:25.446Z,52.88
2019-04-30T22:27:53.974Z,53.13
2019-04-30T22:30:22.498Z,51.05
2019-04-30T22:32:51.028Z,48.58
2019-04-30T22:35:26.921Z,43.90
2019-04-30T22:38:09.300Z,32.80
2019-04-30T22:40:39.187Z,32.67
2019-04-30T22:43:09.330Z,30.35
2019-04-30T22:45:45.347Z,28.83
2019-04-30T22:48:13.807Z,27.82
2019-04-30T22:50:42.330Z,27.37
2019-04-30T22:53:10.849Z,28.23
2019-04-30T22:55:39.373Z,30.60
2019-04-30T22:58:07.826Z,29.02
2019-04-30T23:00:43.848Z,31.30
2019-04-30T23:03:14.081Z,31.55
2019-04-30T23:05:43.010Z,31.35
2019-04-30T23:08:11.467Z,33.73
2019-04-30T23:10:39.957Z,29.72
2019-04-30T23:13:08.636Z,32.05
2019-04-30T23:15:37.168Z,28.12
2019-04-30T23:18:05.774Z,28.92
2019-04-30T23:20:34.283Z,27.82
2019-04-30T23:23:02.734Z,35.05
2019-04-30T23:25:31.195Z,28.47
2019-04-30T23:27:59.701Z,31.20
2019-04-30T23:30:28.172Z,32.08
2019-04-30T23:32:56.623Z,30.77
2019-04-30T23:35:25.135Z,27.40
2019-04-30T23:37:53.604Z,26.68
2019-04-30T23:40:23.693Z,33.90
2019-04-30T23:42:53.820Z,34.18
2019-04-30T23:45:22.513Z,33.70
2019-04-30T23:47:51.079Z,38.13
2019-04-30T23:50:19.527Z,39.15
2019-04-30T23:52:48.123Z,52.58
2019-04-30T23:55:16.714Z,45.35
2019-04-30T23:57:45.470Z,43.17
